createdAt,value
2022-12-14T00:00:08.606Z,6.28
2022-12-14T00:01:08.567Z,6.28
2022-12-14T00:02:08.584Z,6.29
2022-12-14T00:03:08.714Z,6.29
2022-12-14T00:04:08.527Z,6.28
2022-12-14T00:05:08.520Z,6.29
2022-12-14T00:06:08.500Z,6.29
2022-12-14T00:07:08.491Z,6.28
2022-12-14T00:08:08.476Z,6.28
2022-12-14T00:09:08.466Z,6.28
2022-12-14T00:10:08.452Z,6.27
2022-12-14T00:11:08.438Z,6.27
2022-12-14T00:12:08.424Z,6.28
2022-12-14T00:13:08.413Z,6.28
2022-12-14T00:14:08.399Z,6.28
2022-12-14T00:15:08.385Z,6.28
2022-12-14T00:16:08.484Z,6.27
2022-12-14T00:17:08.367Z,6.29
2022-12-14T00:18:08.346Z,6.28
2022-12-14T00:19:08.335Z,6.28
2022-12-14T00:20:08.320Z,6.28
2022-12-14T00:21:08.313Z,6.28
2022-12-14T00:22:08.298Z,6.28
2022-12-14T00:23:08.282Z,6.29
2022-12-14T00:24:08.277Z,6.29
2022-12-14T00:25:08.258Z,6.29
2022-12-14T00:26:08.243Z,6.31
2022-12-14T00:27:08.230Z,6.31
2022-12-14T00:28:08.217Z,6.31
2022-12-14T00:29:08.207Z,6.29
2022-12-14T00:30:08.193Z,6.28
2022-12-14T00:31:08.245Z,6.29
2022-12-14T00:32:08.193Z,6.29
2022-12-14T00:33:08.155Z,6.28
2022-12-14T00:34:08.137Z,6.28
2022-12-14T00:35:08.127Z,6.27
2022-12-14T00:36:08.112Z,6.28
2022-12-14T00:37:08.103Z,6.29
2022-12-14T00:38:08.086Z,6.29
2022-12-14T00:39:08.078Z,6.32
2022-12-14T00:40:08.062Z,6.32
2022-12-14T00:41:08.072Z,6.31
2022-12-14T00:42:08.035Z,6.31
2022-12-14T00:43:08.024Z,6.29
2022-12-14T00:44:08.016Z,6.29
2022-12-14T00:45:08.002Z,6.28
2022-12-14T00:46:08.129Z,6.27
2022-12-14T00:47:07.973Z,6.31
2022-12-14T00:48:07.982Z,6.28
2022-12-14T00:49:07.947Z,6.29
2022-12-14T00:50:07.938Z,6.31
2022-12-14T00:51:07.921Z,6.31
2022-12-14T00:52:07.906Z,6.31
2022-12-14T00:53:07.895Z,6.31
2022-12-14T00:54:07.881Z,6.29
2022-12-14T00:55:07.875Z,6.28
2022-12-14T00:56:07.855Z,6.28
2022-12-14T00:57:07.842Z,6.27
2022-12-14T00:58:07.826Z,6.25
2022-12-14T00:59:07.820Z,6.28
2022-12-14T01:00:07.801Z,6.25
2022-12-14T01:01:07.959Z,6.27
2022-12-14T01:02:07.876Z,6.25
2022-12-14T01:03:07.762Z,6.27
2022-12-14T01:04:07.845Z,6.25
2022-12-14T01:05:07.736Z,6.27
2022-12-14T01:06:07.719Z,6.27
2022-12-14T01:07:07.709Z,6.27
2022-12-14T01:08:07.694Z,6.28
2022-12-14T01:09:07.686Z,6.28
2022-12-14T01:10:07.667Z,6.28
2022-12-14T01:11:07.657Z,6.28
2022-12-14T01:12:07.643Z,6.28
2022-12-14T01:13:07.629Z,6.28
2022-12-14T01:14:07.616Z,6.28
2022-12-14T01:15:07.605Z,6.27
2022-12-14T01:16:07.697Z,6.27
2022-12-14T01:17:07.579Z,6.29
2022-12-14T01:18:07.562Z,6.28
2022-12-14T01:19:07.555Z,6.27
2022-12-14T01:20:07.566Z,6.27
2022-12-14T01:21:07.527Z,6.27
2022-12-14T01:22:07.512Z,6.28
2022-12-14T01:23:07.501Z,6.31
2022-12-14T01:24:07.485Z,6.28
2022-12-14T01:25:07.475Z,6.29
2022-12-14T01:26:07.460Z,6.29
2022-12-14T01:27:07.451Z,6.28
2022-12-14T01:28:07.435Z,6.27
2022-12-14T01:29:07.422Z,6.27
2022-12-14T01:30:07.406Z,6.27
2022-12-14T01:31:07.432Z,6.27
2022-12-14T01:32:07.383Z,6.28
2022-12-14T01:33:07.370Z,6.28
2022-12-14T01:34:07.356Z,6.28
2022-12-14T01:35:07.350Z,6.25
2022-12-14T01:36:07.375Z,6.28
2022-12-14T01:37:07.321Z,6.25
2022-12-14T01:38:07.304Z,6.25
2022-12-14T01:39:07.297Z,6.27
2022-12-14T01:40:07.286Z,6.27
2022-12-14T01:41:07.267Z,6.28
2022-12-14T01:42:07.254Z,6.27
2022-12-14T01:43:07.245Z,6.27
2022-12-14T01:44:07.228Z,6.27
2022-12-14T01:45:07.217Z,6.27
2022-12-14T01:46:07.251Z,6.27
2022-12-14T01:47:12.344Z,6.27
2022-12-14T01:48:07.175Z,6.27
2022-12-14T01:49:07.164Z,6.25
2022-12-14T01:50:07.152Z,6.25
2022-12-14T01:51:07.150Z,6.28
2022-12-14T01:52:07.148Z,6.28
2022-12-14T01:53:07.121Z,6.28
2022-12-14T01:54:07.098Z,6.29
2022-12-14T01:55:07.086Z,6.27
2022-12-14T01:56:07.074Z,6.28
2022-12-14T01:57:07.060Z,6.28
2022-12-14T01:58:07.048Z,6.28
2022-12-14T01:59:07.033Z,6.27
2022-12-14T02:00:07.732Z,6.28
2022-12-14T02:01:07.024Z,6.27
2022-12-14T02:02:07.127Z,6.25
2022-12-14T02:03:07.041Z,6.27
2022-12-14T02:04:06.970Z,6.28
2022-12-14T02:05:07.016Z,6.27
2022-12-14T02:06:06.950Z,6.25
2022-12-14T02:07:06.935Z,6.27
2022-12-14T02:08:06.973Z,6.28
2022-12-14T02:09:06.906Z,6.28
2022-12-14T02:14:39.521Z,6.28
2022-12-14T02:15:39.508Z,6.25
2022-12-14T02:16:39.568Z,6.27
2022-12-14T02:17:39.485Z,6.27
2022-12-14T02:18:39.476Z,6.27
2022-12-14T02:19:39.458Z,6.24
2022-12-14T02:20:39.442Z,6.25
2022-12-14T02:21:39.519Z,6.27
2022-12-14T02:22:39.443Z,6.27
2022-12-14T02:23:39.452Z,6.27
2022-12-14T02:24:39.394Z,6.28
2022-12-14T02:25:39.385Z,6.27
2022-12-14T02:26:39.448Z,6.27
2022-12-14T02:27:39.364Z,6.25
2022-12-14T02:28:39.345Z,6.27
2022-12-14T02:29:39.342Z,6.25
2022-12-14T02:30:39.431Z,6.25
2022-12-14T02:31:39.359Z,6.27
2022-12-14T02:32:39.285Z,6.25
2022-12-14T02:33:39.293Z,6.24
2022-12-14T02:34:39.258Z,6.25
2022-12-14T02:35:39.295Z,6.25
2022-12-14T02:36:39.257Z,6.25
2022-12-14T02:37:39.257Z,6.24
2022-12-14T02:38:39.255Z,6.27
2022-12-14T02:39:39.328Z,6.25
2022-12-14T02:40:39.188Z,6.25
2022-12-14T02:41:39.200Z,6.25
2022-12-14T02:42:39.166Z,6.25
2022-12-14T02:43:39.141Z,6.25
2022-12-14T02:44:39.152Z,6.24
2022-12-14T02:45:39.187Z,6.25
2022-12-14T02:46:39.172Z,6.25
2022-12-14T02:47:39.133Z,6.25
2022-12-14T02:48:39.076Z,6.27
2022-12-14T02:49:39.085Z,6.25
2022-12-14T02:50:39.117Z,6.24
2022-12-14T02:51:39.034Z,6.25
2022-12-14T02:52:39.018Z,6.25
2022-12-14T02:53:39.028Z,6.25
2022-12-14T02:54:38.995Z,6.24
2022-12-14T02:55:39.026Z,6.24
2022-12-14T02:56:38.972Z,6.24
2022-12-14T02:57:39.015Z,6.25
2022-12-14T02:58:38.958Z,6.25
2022-12-14T02:59:38.956Z,6.25
2022-12-14T03:00:39.048Z,6.24
2022-12-14T03:01:39.147Z,6.25
2022-12-14T03:02:39.064Z,6.25
2022-12-14T03:03:38.879Z,6.25
2022-12-14T03:04:38.861Z,6.24
2022-12-14T03:05:38.850Z,6.24
2022-12-14T03:06:38.864Z,6.24
2022-12-14T03:07:38.836Z,6.22
2022-12-14T03:08:38.895Z,6.24
2022-12-14T03:09:38.797Z,6.27
2022-12-14T03:10:38.798Z,6.24
2022-12-14T03:11:38.796Z,6.25
2022-12-14T03:12:38.769Z,6.27
2022-12-14T03:13:38.804Z,6.28
2022-12-14T03:14:38.776Z,6.28
2022-12-14T03:15:38.749Z,6.25
2022-12-14T03:16:38.835Z,6.25
2022-12-14T03:17:38.705Z,6.22
2022-12-14T03:18:38.678Z,6.24
2022-12-14T03:19:38.664Z,6.25
2022-12-14T03:20:38.651Z,6.27
2022-12-14T03:21:38.638Z,6.25
2022-12-14T03:22:38.624Z,6.25
2022-12-14T03:23:38.612Z,6.25
2022-12-14T03:24:38.599Z,6.22
2022-12-14T03:25:38.588Z,6.24
2022-12-14T03:26:41.675Z,6.25
2022-12-14T03:27:39.625Z,6.25
2022-12-14T03:28:38.545Z,6.25
2022-12-14T03:29:38.535Z,6.25
2022-12-14T03:30:59.296Z,6.22
2022-12-14T03:31:39.582Z,6.21
2022-12-14T03:32:38.493Z,6.22
2022-12-14T03:33:38.482Z,6.21
2022-12-14T03:34:38.477Z,6.22
2022-12-14T03:35:38.456Z,6.24
2022-12-14T03:36:38.440Z,6.22
2022-12-14T03:37:38.434Z,6.24
2022-12-14T03:38:38.416Z,6.22
2022-12-14T03:39:38.403Z,6.25
2022-12-14T03:40:38.388Z,6.28
2022-12-14T03:41:38.378Z,6.28
2022-12-14T03:42:38.363Z,6.25
2022-12-14T03:43:38.377Z,6.28
2022-12-14T03:44:48.901Z,6.25
2022-12-14T03:45:39.454Z,6.24
2022-12-14T03:46:38.311Z,6.24
2022-12-14T03:47:38.297Z,6.25
2022-12-14T03:48:38.283Z,6.24
2022-12-14T03:49:38.271Z,6.24
2022-12-14T03:50:38.256Z,6.24
2022-12-14T03:51:38.244Z,6.22
2022-12-14T03:52:38.229Z,6.24
2022-12-14T03:53:38.220Z,6.22
2022-12-14T03:54:38.204Z,6.22
2022-12-14T03:55:38.194Z,6.24
2022-12-14T03:56:38.178Z,6.24
2022-12-14T03:57:38.166Z,6.22
2022-12-14T03:58:38.152Z,6.21
2022-12-14T03:59:38.166Z,6.21
2022-12-14T04:00:38.168Z,6.21
2022-12-14T04:01:38.406Z,6.22
2022-12-14T04:02:40.982Z,6.22
2022-12-14T04:03:38.089Z,6.21
2022-12-14T04:04:38.075Z,6.22
2022-12-14T04:05:38.066Z,6.22
2022-12-14T04:06:38.048Z,6.24
2022-12-14T04:07:38.037Z,6.22
2022-12-14T04:08:38.025Z,6.25
2022-12-14T04:09:38.011Z,6.24
2022-12-14T04:10:37.997Z,6.24
2022-12-14T04:11:37.986Z,6.22
2022-12-14T04:12:37.970Z,6.22
2022-12-14T04:13:37.959Z,6.24
2022-12-14T04:14:37.944Z,6.22
2022-12-14T04:15:37.961Z,6.22
2022-12-14T04:16:38.037Z,6.24
2022-12-14T04:17:37.908Z,6.21
2022-12-14T04:18:37.894Z,6.21
2022-12-14T04:19:37.884Z,6.21
2022-12-14T04:20:37.869Z,6.21
2022-12-14T04:21:37.856Z,6.19
2022-12-14T04:22:37.842Z,6.21
2022-12-14T04:23:37.833Z,6.22
2022-12-14T04:24:37.817Z,6.21
2022-12-14T04:25:37.804Z,6.19
2022-12-14T04:26:37.792Z,6.21
2022-12-14T04:27:37.779Z,6.21
2022-12-14T04:28:37.769Z,6.19
2022-12-14T04:29:40.456Z,6.19
2022-12-14T04:30:38.780Z,6.19
2022-12-14T04:31:37.821Z,6.21
2022-12-14T04:32:37.796Z,6.21
2022-12-14T04:33:37.702Z,6.19
2022-12-14T04:34:37.687Z,6.21
2022-12-14T04:35:37.677Z,6.22
2022-12-14T04:36:37.665Z,6.22
2022-12-14T04:37:37.648Z,6.19
2022-12-14T04:38:37.638Z,6.18
2022-12-14T04:39:37.624Z,6.18
2022-12-14T04:40:37.610Z,6.18
2022-12-14T04:41:37.597Z,6.21
2022-12-14T04:42:37.584Z,6.21
2022-12-14T04:43:37.581Z,6.22
2022-12-14T04:44:37.563Z,6.24
2022-12-14T04:45:37.613Z,6.22
2022-12-14T04:46:40.746Z,6.22
2022-12-14T04:47:37.544Z,6.25
2022-12-14T04:48:37.506Z,6.25
2022-12-14T04:49:37.495Z,6.22
2022-12-14T04:50:37.480Z,6.21
2022-12-14T04:51:37.467Z,6.19
2022-12-14T04:52:37.453Z,6.21
2022-12-14T04:53:37.444Z,6.19
2022-12-14T04:54:37.426Z,6.19
2022-12-14T04:55:37.414Z,6.21
2022-12-14T04:56:37.402Z,6.19
2022-12-14T04:57:37.388Z,6.18
2022-12-14T04:58:37.374Z,6.21
2022-12-14T04:59:37.365Z,6.19
2022-12-14T05:00:37.349Z,6.21
2022-12-14T05:01:37.443Z,6.22
2022-12-14T05:02:37.419Z,6.21
2022-12-14T05:03:37.339Z,6.21
2022-12-14T05:04:37.297Z,6.21
2022-12-14T05:05:37.286Z,6.19
2022-12-14T05:06:37.278Z,6.19
2022-12-14T05:07:37.258Z,6.19
2022-12-14T05:08:37.244Z,6.21
2022-12-14T05:09:37.232Z,6.19
2022-12-14T05:10:37.219Z,6.19
2022-12-14T05:11:52.995Z,6.21
2022-12-14T05:12:38.232Z,6.19
2022-12-14T05:13:37.181Z,6.19
2022-12-14T05:14:37.165Z,6.19
2022-12-14T05:15:37.153Z,6.18
2022-12-14T05:16:37.217Z,6.21
2022-12-14T05:17:37.127Z,6.19
2022-12-14T05:18:37.114Z,6.19
2022-12-14T05:19:37.165Z,6.19
2022-12-14T05:20:37.091Z,6.18
2022-12-14T05:21:37.077Z,6.19
2022-12-14T05:22:37.066Z,6.18
2022-12-14T05:23:37.048Z,6.19
2022-12-14T05:24:37.047Z,6.19
2022-12-14T05:25:37.022Z,6.19
2022-12-14T05:26:37.011Z,6.21
2022-12-14T05:27:36.997Z,6.21
2022-12-14T05:28:36.979Z,6.21
2022-12-14T05:29:36.967Z,6.21
2022-12-14T05:30:37.017Z,6.21
2022-12-14T05:31:36.945Z,6.22
2022-12-14T05:32:36.928Z,6.24
2022-12-14T05:33:36.915Z,6.21
2022-12-14T05:34:36.904Z,6.19
2022-12-14T05:35:36.912Z,6.19
2022-12-14T05:36:36.875Z,6.18
2022-12-14T05:37:36.867Z,6.19
2022-12-14T05:38:36.850Z,6.18
2022-12-14T05:39:36.838Z,6.19
2022-12-14T05:40:36.830Z,6.19
2022-12-14T05:41:36.813Z,6.18
2022-12-14T05:42:42.613Z,6.18
2022-12-14T05:43:37.827Z,6.16
2022-12-14T05:44:36.775Z,6.21
2022-12-14T05:45:36.877Z,6.18
2022-12-14T05:46:36.745Z,6.19
2022-12-14T05:47:36.733Z,6.18
2022-12-14T05:48:36.720Z,6.14
2022-12-14T05:49:36.708Z,6.18
2022-12-14T05:50:36.693Z,6.18
2022-12-14T05:51:36.706Z,6.19
2022-12-14T05:52:36.669Z,6.19
2022-12-14T05:53:36.656Z,6.18
2022-12-14T05:54:36.640Z,6.19
2022-12-14T05:55:36.630Z,6.19
2022-12-14T05:56:36.615Z,6.19
2022-12-14T05:57:36.602Z,6.18
2022-12-14T05:58:36.594Z,6.18
2022-12-14T05:59:36.576Z,6.16
2022-12-14T06:00:36.562Z,6.14
2022-12-14T06:01:36.589Z,6.16
2022-12-14T06:02:36.589Z,6.18
2022-12-14T06:03:36.524Z,6.16
2022-12-14T06:04:36.558Z,6.18
2022-12-14T06:05:36.498Z,6.19
2022-12-14T06:06:36.484Z,6.19
2022-12-14T06:07:36.497Z,6.18
2022-12-14T06:08:36.457Z,6.16
2022-12-14T06:09:36.445Z,6.18
2022-12-14T06:10:36.431Z,6.18
2022-12-14T06:11:36.419Z,6.18
2022-12-14T06:12:36.402Z,6.14
2022-12-14T06:13:36.393Z,6.16
2022-12-14T06:14:36.378Z,6.16
2022-12-14T06:15:36.416Z,6.16
2022-12-14T06:16:36.353Z,6.16
2022-12-14T06:17:36.349Z,6.18
2022-12-14T06:18:36.327Z,6.16
2022-12-14T06:19:36.312Z,6.18
2022-12-14T06:20:36.301Z,6.16
2022-12-14T06:21:36.285Z,6.18
2022-12-14T06:22:36.273Z,6.18
2022-12-14T06:23:36.285Z,6.18
2022-12-14T06:24:36.246Z,6.18
2022-12-14T06:25:36.230Z,6.18
2022-12-14T06:26:36.219Z,6.16
2022-12-14T06:27:36.205Z,6.16
2022-12-14T06:28:36.196Z,6.14
2022-12-14T06:29:36.176Z,6.16
2022-12-14T06:30:36.166Z,6.18
2022-12-14T06:31:36.151Z,6.18
2022-12-14T06:32:36.139Z,6.16
2022-12-14T06:33:36.124Z,6.16
2022-12-14T06:34:39.877Z,6.16
2022-12-14T06:35:36.096Z,6.18
2022-12-14T06:36:36.088Z,6.18
2022-12-14T06:37:36.070Z,6.19
2022-12-14T06:38:36.057Z,6.19
2022-12-14T06:39:36.329Z,6.18
2022-12-14T06:40:36.033Z,6.18
2022-12-14T06:41:36.016Z,6.18
2022-12-14T06:42:36.006Z,6.19
2022-12-14T06:43:35.991Z,6.18
2022-12-14T06:44:35.979Z,6.19
2022-12-14T06:45:35.970Z,6.16
2022-12-14T06:46:36.073Z,6.14
2022-12-14T06:47:35.941Z,6.16
2022-12-14T06:48:35.926Z,6.16
2022-12-14T06:49:35.915Z,6.18
2022-12-14T06:50:35.903Z,6.18
2022-12-14T06:51:35.886Z,6.18
2022-12-14T06:52:35.874Z,6.18
2022-12-14T06:53:35.875Z,6.19
2022-12-14T06:54:35.848Z,6.18
2022-12-14T06:55:35.858Z,6.18
2022-12-14T06:56:35.819Z,6.19
2022-12-14T06:57:35.835Z,6.22
2022-12-14T06:58:35.793Z,6.19
2022-12-14T06:59:35.787Z,6.19
2022-12-14T07:00:35.776Z,6.19
2022-12-14T07:01:35.955Z,6.18
2022-12-14T07:02:35.959Z,6.18
2022-12-14T07:03:35.984Z,6.19
2022-12-14T07:04:35.713Z,6.19
2022-12-14T07:05:35.699Z,6.19
2022-12-14T07:06:35.688Z,6.19
2022-12-14T07:07:35.676Z,6.18
2022-12-14T07:08:35.661Z,6.21
2022-12-14T07:09:35.646Z,6.19
2022-12-14T07:10:35.633Z,6.19
2022-12-14T07:11:35.640Z,6.18
2022-12-14T07:12:35.610Z,6.19
2022-12-14T07:13:35.592Z,6.19
2022-12-14T07:14:35.581Z,6.19
2022-12-14T07:15:35.600Z,6.21
2022-12-14T07:16:35.554Z,6.21
2022-12-14T07:17:35.538Z,6.21
2022-12-14T07:18:35.530Z,6.21
2022-12-14T07:19:35.513Z,6.22
2022-12-14T07:20:35.524Z,6.22
2022-12-14T07:21:35.504Z,6.22
2022-12-14T07:22:35.476Z,6.22
2022-12-14T07:23:36.040Z,6.22
2022-12-14T07:24:35.450Z,6.22
2022-12-14T07:25:35.443Z,6.19
2022-12-14T07:26:35.424Z,6.21
2022-12-14T07:27:35.432Z,6.21
2022-12-14T07:28:35.397Z,6.21
2022-12-14T07:29:35.383Z,6.21
2022-12-14T07:30:35.369Z,6.22
2022-12-14T07:31:35.365Z,6.24
2022-12-14T07:32:35.344Z,6.24
2022-12-14T07:33:35.332Z,6.25
2022-12-14T07:34:35.317Z,6.22
2022-12-14T07:35:35.303Z,6.22
2022-12-14T07:36:35.292Z,6.22
2022-12-14T07:37:35.280Z,6.22
2022-12-14T07:38:35.269Z,6.21
2022-12-14T07:39:35.249Z,6.21
2022-12-14T07:40:35.240Z,6.21
2022-12-14T07:41:35.224Z,6.19
2022-12-14T07:42:35.213Z,6.19
2022-12-14T07:43:35.220Z,6.19
2022-12-14T07:44:35.187Z,6.21
2022-12-14T07:45:35.172Z,6.24
2022-12-14T07:46:35.208Z,6.22
2022-12-14T07:47:35.147Z,6.21
2022-12-14T07:48:35.133Z,6.22
2022-12-14T07:49:35.119Z,6.24
2022-12-14T07:50:35.109Z,6.24
2022-12-14T07:51:35.094Z,6.22
2022-12-14T07:52:37.552Z,6.22
2022-12-14T07:53:35.077Z,6.22
2022-12-14T07:54:35.054Z,6.22
2022-12-14T07:55:35.039Z,6.22
2022-12-14T07:56:35.028Z,6.21
2022-12-14T07:57:35.013Z,6.21
2022-12-14T07:58:35.002Z,6.21
2022-12-14T07:59:35.011Z,6.22
2022-12-14T08:00:34.975Z,6.21
2022-12-14T08:01:35.079Z,6.22
2022-12-14T08:02:35.047Z,6.21
2022-12-14T08:03:34.936Z,6.21
2022-12-14T08:04:35.005Z,6.22
2022-12-14T08:05:34.911Z,6.21
2022-12-14T08:06:34.994Z,6.19
2022-12-14T08:07:34.879Z,6.21
2022-12-14T08:08:34.871Z,6.21
2022-12-14T08:09:34.853Z,6.22
2022-12-14T08:10:40.221Z,6.21
2022-12-14T08:11:34.827Z,6.21
2022-12-14T08:12:34.815Z,6.21
2022-12-14T08:13:34.801Z,6.22
2022-12-14T08:14:34.790Z,6.19
2022-12-14T08:15:34.807Z,6.21
2022-12-14T08:16:34.869Z,6.21
2022-12-14T08:17:34.747Z,6.22
2022-12-14T08:18:34.738Z,6.22
2022-12-14T08:19:34.721Z,6.22
2022-12-14T08:20:34.711Z,6.19
2022-12-14T08:21:34.695Z,6.19
2022-12-14T08:22:34.681Z,6.21
2022-12-14T08:23:34.669Z,6.21
2022-12-14T08:24:34.657Z,6.21
2022-12-14T08:25:34.643Z,6.22
2022-12-14T08:26:35.981Z,6.22
2022-12-14T08:27:34.616Z,6.22
2022-12-14T08:28:34.606Z,6.22
2022-12-14T08:29:34.593Z,6.22
2022-12-14T08:30:34.578Z,6.21
2022-12-14T08:31:34.730Z,6.21
2022-12-14T08:32:34.715Z,6.22
2022-12-14T08:33:34.537Z,6.22
2022-12-14T08:34:34.526Z,6.22
2022-12-14T08:35:34.512Z,6.21
2022-12-14T08:36:34.524Z,6.21
2022-12-14T08:37:34.485Z,6.21
2022-12-14T08:38:34.473Z,6.22
2022-12-14T08:39:34.458Z,6.22
2022-12-14T08:40:34.447Z,6.21
2022-12-14T08:41:34.437Z,6.22
2022-12-14T08:42:34.421Z,6.22
2022-12-14T08:43:34.407Z,6.21
2022-12-14T08:44:34.394Z,6.22
2022-12-14T08:45:34.379Z,6.22
2022-12-14T08:46:34.438Z,6.24
2022-12-14T08:47:34.381Z,6.24
2022-12-14T08:48:34.340Z,6.24
2022-12-14T08:49:34.325Z,6.24
2022-12-14T08:50:34.318Z,6.22
2022-12-14T08:51:34.300Z,6.24
2022-12-14T08:52:34.289Z,6.27
2022-12-14T08:53:34.363Z,6.27
2022-12-14T08:54:34.261Z,6.27
2022-12-14T08:55:38.719Z,6.25
2022-12-14T08:56:34.237Z,6.25
2022-12-14T08:57:34.220Z,6.25
2022-12-14T08:58:34.208Z,6.27
2022-12-14T09:00:00.323Z,6.25
2022-12-14T09:00:35.279Z,6.27
2022-12-14T09:01:34.960Z,6.27
2022-12-14T09:02:34.275Z,6.25
2022-12-14T09:03:34.160Z,6.25
2022-12-14T09:04:34.129Z,6.28
2022-12-14T09:05:34.116Z,6.27
2022-12-14T09:06:34.108Z,6.28
2022-12-14T09:07:34.090Z,6.28
2022-12-14T09:08:34.079Z,6.28
2022-12-14T09:09:34.065Z,6.28
2022-12-14T09:10:34.052Z,6.28
2022-12-14T09:11:34.048Z,6.28
2022-12-14T09:12:34.026Z,6.29
2022-12-14T09:13:34.323Z,6.28
2022-12-14T09:14:34.000Z,6.28
2022-12-14T09:15:33.988Z,6.28
2022-12-14T09:16:34.210Z,6.29
2022-12-14T09:17:33.960Z,6.32
2022-12-14T09:18:34.210Z,6.31
2022-12-14T09:19:33.935Z,6.31
2022-12-14T09:20:33.923Z,6.31
2022-12-14T09:21:33.975Z,6.29
2022-12-14T09:22:33.900Z,6.29
2022-12-14T09:23:34.169Z,6.31
2022-12-14T09:24:33.870Z,6.31
2022-12-14T09:25:33.858Z,6.31
2022-12-14T09:26:33.893Z,6.31
2022-12-14T09:27:33.829Z,6.32
2022-12-14T09:28:33.819Z,6.31
2022-12-14T09:29:33.817Z,6.32
2022-12-14T09:30:39.795Z,6.31
2022-12-14T09:31:33.844Z,6.31
2022-12-14T09:32:33.779Z,6.31
2022-12-14T09:33:34.008Z,6.31
2022-12-14T09:34:33.739Z,6.31
2022-12-14T09:35:33.726Z,6.31
2022-12-14T09:36:33.735Z,6.29
2022-12-14T09:37:33.734Z,6.29
2022-12-14T09:38:33.711Z,6.31
2022-12-14T09:39:33.715Z,6.31
2022-12-14T09:40:33.696Z,6.32
2022-12-14T09:41:33.645Z,6.34
2022-12-14T09:42:33.697Z,6.32
2022-12-14T09:43:37.192Z,6.34
2022-12-14T09:44:33.696Z,6.34
2022-12-14T09:45:33.727Z,6.34
2022-12-14T09:46:33.646Z,6.35
2022-12-14T09:47:33.628Z,6.34
2022-12-14T09:48:33.561Z,6.35
2022-12-14T09:49:33.587Z,6.34
2022-12-14T09:50:33.567Z,6.35
2022-12-14T09:51:33.552Z,6.35
2022-12-14T09:52:33.501Z,6.35
2022-12-14T09:53:33.532Z,6.37
2022-12-14T09:54:33.500Z,6.37
2022-12-14T09:55:33.508Z,6.35
2022-12-14T09:56:33.482Z,6.37
2022-12-14T09:57:33.453Z,6.35
2022-12-14T09:58:33.619Z,6.35
2022-12-14T09:59:33.417Z,6.35
2022-12-14T10:00:33.452Z,6.37
2022-12-14T10:01:33.574Z,6.37
2022-12-14T10:02:33.939Z,6.35
2022-12-14T10:03:33.919Z,6.35
2022-12-14T10:04:33.513Z,6.35
2022-12-14T10:05:33.363Z,6.35
2022-12-14T10:06:33.358Z,6.37
2022-12-14T10:07:34.607Z,6.34
2022-12-14T10:08:33.709Z,6.39
2022-12-14T10:09:33.281Z,6.39
2022-12-14T10:10:33.324Z,6.39
2022-12-14T10:11:33.241Z,6.39
2022-12-14T10:12:34.498Z,6.37
2022-12-14T10:13:33.488Z,6.37
2022-12-14T10:14:33.248Z,6.37
2022-12-14T10:15:33.198Z,6.37
2022-12-14T10:16:33.253Z,6.37
2022-12-14T10:17:33.212Z,6.39
2022-12-14T10:18:58.110Z,6.39
2022-12-14T10:19:34.264Z,6.39
2022-12-14T10:20:33.170Z,6.39
2022-12-14T10:21:33.123Z,6.39
2022-12-14T10:22:33.162Z,6.37
2022-12-14T10:23:33.108Z,6.37
2022-12-14T10:24:33.075Z,6.39
2022-12-14T10:25:33.073Z,6.39
2022-12-14T10:26:33.063Z,6.39
2022-12-14T10:27:54.001Z,6.39
2022-12-14T10:28:34.109Z,6.40
2022-12-14T10:29:33.029Z,6.39
2022-12-14T10:30:33.008Z,6.39
2022-12-14T10:31:33.061Z,6.40
2022-12-14T10:32:32.992Z,6.39
2022-12-14T10:33:32.984Z,6.40
2022-12-14T10:34:32.970Z,6.40
2022-12-14T10:35:33.028Z,6.42
2022-12-14T10:36:32.911Z,6.40
2022-12-14T10:37:32.902Z,6.42
2022-12-14T10:38:33.552Z,6.42
2022-12-14T10:40:15.581Z,6.43
2022-12-14T10:41:08.900Z,6.43
2022-12-14T10:42:07.837Z,6.43
2022-12-14T10:43:07.804Z,6.42
2022-12-14T10:44:07.773Z,6.42
2022-12-14T10:46:13.911Z,6.42
2022-12-14T10:47:07.730Z,6.42
2022-12-14T10:48:07.760Z,6.43
2022-12-14T10:49:07.742Z,6.42
2022-12-14T10:50:07.691Z,6.42
2022-12-14T10:51:07.683Z,6.43
2022-12-14T10:52:13.671Z,6.43
2022-12-14T10:53:07.659Z,6.43
2022-12-14T10:54:07.635Z,6.43
2022-12-14T10:55:07.628Z,6.43
2022-12-14T10:56:07.679Z,6.42
2022-12-14T10:57:07.597Z,6.43
2022-12-14T10:58:07.585Z,6.42
2022-12-14T10:59:07.566Z,6.45
2022-12-14T11:00:13.462Z,6.45
2022-12-14T11:01:14.778Z,6.43
2022-12-14T11:02:07.734Z,6.45
2022-12-14T11:03:07.637Z,6.42
2022-12-14T11:04:07.506Z,6.43
2022-12-14T11:05:07.510Z,6.43
2022-12-14T11:06:07.489Z,6.42
2022-12-14T11:07:07.469Z,6.43
2022-12-14T11:08:07.531Z,6.42
2022-12-14T11:09:07.435Z,6.42
2022-12-14T11:10:07.425Z,6.43
2022-12-14T11:11:07.407Z,6.42
2022-12-14T11:12:13.543Z,6.43
2022-12-14T11:13:07.411Z,6.43
2022-12-14T11:14:07.383Z,6.43
2022-12-14T11:15:07.360Z,6.43
2022-12-14T11:16:07.402Z,6.42
2022-12-14T11:17:07.511Z,6.43
2022-12-14T11:18:07.443Z,6.43
2022-12-14T11:19:07.356Z,6.43
2022-12-14T11:20:07.330Z,6.40
2022-12-14T11:21:07.280Z,6.40
2022-12-14T11:22:07.313Z,6.43
2022-12-14T11:23:07.284Z,6.45
2022-12-14T11:24:07.255Z,6.43
2022-12-14T11:25:07.295Z,6.46
2022-12-14T11:26:07.218Z,6.46
2022-12-14T11:27:07.215Z,6.43
2022-12-14T11:28:07.210Z,6.45
2022-12-14T11:29:07.180Z,6.45
2022-12-14T11:30:07.161Z,6.43
2022-12-14T11:31:07.253Z,6.43
2022-12-14T11:32:07.162Z,6.43
2022-12-14T11:33:07.127Z,6.42
2022-12-14T11:34:07.110Z,6.43
2022-12-14T11:35:07.098Z,6.43
2022-12-14T11:36:07.089Z,6.42
2022-12-14T11:37:07.092Z,6.42
2022-12-14T11:38:07.065Z,6.43
2022-12-14T11:39:07.043Z,6.42
2022-12-14T11:40:07.031Z,6.42
2022-12-14T11:41:11.491Z,6.42
2022-12-14T11:42:07.074Z,6.43
2022-12-14T11:43:07.001Z,6.43
2022-12-14T11:44:06.975Z,6.42
2022-12-14T11:45:13.010Z,6.43
2022-12-14T11:46:07.072Z,6.42
2022-12-14T11:47:06.988Z,6.42
2022-12-14T11:48:06.962Z,6.42
2022-12-14T11:49:07.045Z,6.42
2022-12-14T11:50:06.906Z,6.43
2022-12-14T11:51:06.942Z,6.43
2022-12-14T11:52:06.895Z,6.42
2022-12-14T11:53:11.236Z,6.40
2022-12-14T11:54:06.850Z,6.42
2022-12-14T11:55:06.890Z,6.43
2022-12-14T11:56:06.873Z,6.42
2022-12-14T11:57:06.844Z,6.42
2022-12-14T11:58:06.790Z,6.42
2022-12-14T11:59:06.778Z,6.42
2022-12-14T12:00:06.838Z,6.42
2022-12-14T12:01:06.817Z,6.42
2022-12-14T12:02:06.845Z,6.42
2022-12-14T12:03:06.759Z,6.40
2022-12-14T12:04:06.854Z,6.42
2022-12-14T12:05:06.729Z,6.42
2022-12-14T12:06:06.690Z,6.42
2022-12-14T12:07:06.696Z,6.42
2022-12-14T12:08:06.663Z,6.40
2022-12-14T12:09:06.664Z,6.45
2022-12-14T12:10:06.714Z,6.42
2022-12-14T12:11:06.642Z,6.39
2022-12-14T12:12:06.652Z,6.39
2022-12-14T12:13:06.599Z,6.40
2022-12-14T12:14:06.619Z,6.42
2022-12-14T12:15:06.600Z,6.42
2022-12-14T12:16:06.740Z,6.42
2022-12-14T12:17:06.544Z,6.42
2022-12-14T12:18:06.545Z,6.39
2022-12-14T12:19:11.734Z,6.40
2022-12-14T12:20:07.552Z,6.42
2022-12-14T12:21:06.518Z,6.40
2022-12-14T12:22:06.480Z,6.42
2022-12-14T12:23:06.473Z,6.42
2022-12-14T12:24:06.483Z,6.40
2022-12-14T12:25:25.756Z,6.42
2022-12-14T12:26:07.489Z,6.39
2022-12-14T12:27:06.420Z,6.39
2022-12-14T12:28:06.396Z,6.37
2022-12-14T12:29:06.387Z,6.40
2022-12-14T12:30:06.401Z,6.40
2022-12-14T12:31:10.695Z,6.40
2022-12-14T12:32:06.426Z,6.40
2022-12-14T12:33:06.375Z,6.40
2022-12-14T12:34:06.319Z,6.39
2022-12-14T12:35:11.785Z,6.42
2022-12-14T12:36:07.376Z,6.42
2022-12-14T12:37:28.306Z,6.43
2022-12-14T12:38:07.409Z,6.43
2022-12-14T12:39:06.288Z,6.43
2022-12-14T12:40:06.259Z,6.42
2022-12-14T12:41:06.261Z,6.43
2022-12-14T12:42:06.211Z,6.45
2022-12-14T12:43:06.207Z,6.42
2022-12-14T12:44:06.247Z,6.43
2022-12-14T12:45:06.172Z,6.43
2022-12-14T12:46:06.218Z,6.43
2022-12-14T12:47:24.036Z,6.43
2022-12-14T12:48:07.402Z,6.42
2022-12-14T12:49:06.142Z,6.43
2022-12-14T12:50:06.143Z,6.43
2022-12-14T12:51:06.099Z,6.46
2022-12-14T12:52:06.087Z,6.42
2022-12-14T12:53:06.085Z,6.45
2022-12-14T12:54:06.056Z,6.45
2022-12-14T12:55:06.050Z,6.43
2022-12-14T12:56:06.039Z,6.43
2022-12-14T12:57:06.051Z,6.42
2022-12-14T12:58:06.006Z,6.43
2022-12-14T12:59:06.002Z,6.43
2022-12-14T13:00:05.973Z,6.42
2022-12-14T13:01:05.963Z,6.43
2022-12-14T13:02:06.129Z,6.43
2022-12-14T13:03:06.082Z,6.42
2022-12-14T13:04:05.963Z,6.43
2022-12-14T13:05:29.083Z,6.43
2022-12-14T13:06:06.982Z,6.43
2022-12-14T13:07:05.905Z,6.45
2022-12-14T13:08:05.911Z,6.43
2022-12-14T13:09:05.860Z,6.42
2022-12-14T13:10:06.296Z,6.42
2022-12-14T13:12:06.860Z,6.43
2022-12-14T13:13:05.805Z,6.45
2022-12-14T13:14:05.790Z,6.45
2022-12-14T13:15:05.791Z,6.45
2022-12-14T13:16:05.874Z,6.43
2022-12-14T13:17:05.769Z,6.42
2022-12-14T13:18:05.804Z,6.42
2022-12-14T13:19:25.372Z,6.43
2022-12-14T13:20:06.751Z,6.42
2022-12-14T13:21:05.698Z,6.42
2022-12-14T13:22:07.933Z,6.42
2022-12-14T13:24:05.663Z,6.43
2022-12-14T13:25:05.688Z,6.42
2022-12-14T13:26:05.631Z,6.42